Time;durP1;ratioP1;P1;durP2;ratioP2;P2;SDS_P1;SDS_P2;PMS_P1;PMS_P2;Temp;Humidity;BMP_temperature;BMP_pressure;BME280_temperature;BME280_humidity;BME280_pressure;Samples;Min_cycle;Max_cycle;Signal;HPM_P1;HPM_P2
2022/06/07 00:00:35;;;;;;;6.00;2.60;;;18.00;1.00;;;;;;5052345;28;20393;-56
2022/06/07 00:03:02;;;;;;;6.72;2.67;;;18.10;1.00;;;;;;5052438;28;20400;-60
2022/06/07 00:05:28;;;;;;;5.38;2.20;;;18.10;99.90;;;;;;5052704;28;20415;-60
2022/06/07 00:07:54;;;;;;;6.90;2.60;;;17.90;99.90;;;;;;5051548;28;20573;-60
2022/06/07 00:10:22;;;;;;;5.43;2.30;;;17.90;1.00;;;;;;5052846;28;20783;-60
2022/06/07 00:12:48;;;;;;;5.80;2.20;;;17.80;1.00;;;;;;5051910;28;20813;-60
2022/06/07 00:15:13;;;;;;;8.13;2.83;;;17.80;99.90;;;;;;5052532;28;20381;-59
2022/06/07 00:17:40;;;;;;;6.20;2.30;;;17.90;99.90;;;;;;5051780;28;20400;-60
2022/06/07 00:20:07;;;;;;;5.30;2.10;;;17.90;99.90;;;;;;5052609;28;20393;-60
2022/06/07 00:22:34;;;;;;;5.63;2.10;;;17.90;99.90;;;;;;5051860;28;20935;-55
2022/06/07 00:25:01;;;;;;;5.60;2.08;;;17.80;17.90;;;;;;5052430;28;20416;-61
2022/06/07 00:27:27;;;;;;;5.03;1.80;;;17.80;5.90;;;;;;5052444;28;20446;-60
2022/06/07 00:29:53;;;;;;;7.10;2.08;;;17.80;1.00;;;;;;5051333;28;20416;-60
2022/06/07 00:32:20;;;;;;;5.35;2.00;;;17.80;1.00;;;;;;5052359;28;20503;-60
2022/06/07 00:34:46;;;;;;;11.50;2.03;;;17.70;1.00;;;;;;5051245;28;20750;-60
2022/06/07 00:37:12;;;;;;;5.83;2.00;;;17.70;1.00;;;;;;5051831;28;20389;-59
2022/06/07 00:39:38;;;;;;;7.30;2.03;;;17.70;1.00;;;;;;5050408;28;20446;-59
2022/06/07 00:42:04;;;;;;;5.50;2.23;;;17.70;16.20;;;;;;5052153;28;20855;-61
2022/06/07 00:44:32;;;;;;;6.00;2.00;;;17.70;99.90;;;;;;5051944;28;20444;-61
2022/06/07 00:47:02;;;;;;;7.10;2.15;;;17.70;99.90;;;;;;5050459;28;20402;-61
2022/06/07 00:49:33;;;;;;;5.30;2.10;;;17.60;99.90;;;;;;5052129;28;20405;-61
2022/06/07 00:51:58;;;;;;;5.22;2.00;;;17.50;99.90;;;;;;5051522;28;20389;-60
2022/06/07 00:54:29;;;;;;;5.30;1.90;;;17.60;99.90;;;;;;5052190;28;20397;-61
2022/06/07 00:56:55;;;;;;;6.27;2.10;;;17.60;99.90;;;;;;5051155;28;20366;-61
2022/06/07 00:59:22;;;;;;;5.90;2.00;;;17.60;1.00;;;;;;5051979;28;20395;-60
2022/06/07 01:01:48;;;;;;;4.93;1.83;;;17.50;99.90;;;;;;5050790;28;20392;-61
2022/06/07 01:04:13;;;;;;;8.40;2.30;;;17.40;99.90;;;;;;5051764;28;20377;-61
2022/06/07 01:12:07;;;;;;;9.23;1.95;;;17.40;99.90;;;;;;5051636;28;20381;-61
2022/06/07 01:14:33;;;;;;;5.22;1.90;;;17.30;99.90;;;;;;5051070;28;20796;-59
2022/06/07 01:16:59;;;;;;;5.03;1.95;;;17.40;99.90;;;;;;5050838;28;20486;-61
2022/06/07 01:19:25;;;;;;;5.50;2.00;;;17.40;19.40;;;;;;5033192;28;20855;-61
2022/06/07 01:21:51;;;;;;;6.10;2.10;;;17.40;86.10;;;;;;5050281;28;20500;-60
2022/06/07 01:24:17;;;;;;;6.20;2.10;;;17.40;99.90;;;;;;5051661;28;20492;-61
2022/06/07 01:26:43;;;;;;;5.70;2.10;;;17.40;99.90;;;;;;5050728;28;20429;-61
2022/06/07 01:29:10;;;;;;;5.25;1.90;;;17.40;99.90;;;;;;5051134;28;20533;-61
2022/06/07 01:31:36;;;;;;;7.40;1.90;;;17.40;1.00;;;;;;5050251;28;20766;-56
2022/06/07 01:34:03;;;;;;;7.15;2.30;;;17.40;3.10;;;;;;5051395;28;20394;-60
2022/06/07 01:36:30;;;;;;;5.80;2.30;;;17.20;1.00;;;;;;5050825;28;20879;-60
2022/06/07 01:41:54;;;;;;;5.80;1.80;;;17.10;31.10;;;;;;5050164;28;20482;-60
2022/06/07 01:44:25;;;;;;;5.80;1.87;;;17.00;99.90;;;;;;5051305;28;20373;-60
2022/06/07 01:46:52;;;;;;;8.25;1.90;;;16.90;1.00;;;;;;5050225;28;20902;-61
2022/06/07 01:49:18;;;;;;;5.32;2.10;;;16.80;23.60;;;;;;5051079;28;20402;-60
2022/06/07 01:51:44;;;;;;;5.72;2.00;;;16.70;1.00;;;;;;5049769;28;20458;-60
2022/06/07 01:54:12;;;;;;;5.40;1.90;;;16.80;46.10;;;;;;5050832;28;20429;-60
2022/06/07 01:56:38;;;;;;;4.80;1.90;;;16.60;4.60;;;;;;5050058;28;20443;-56
2022/06/07 01:59:05;;;;;;;6.55;1.90;;;16.50;99.90;;;;;;5049647;28;20401;-60
2022/06/07 02:01:30;;;;;;;5.10;1.90;;;16.30;1.00;;;;;;5050669;28;20451;-61
2022/06/07 02:03:56;;;;;;;7.38;1.80;;;16.30;1.00;;;;;;5049814;28;20997;-61
2022/06/07 02:06:22;;;;;;;5.13;1.60;;;16.40;1.00;;;;;;5050655;28;20390;-61
2022/06/07 02:08:48;;;;;;;5.70;2.00;;;16.50;1.00;;;;;;5031624;28;20409;-61
2022/06/07 02:11:17;;;;;;;5.40;1.80;;;16.40;99.90;;;;;;5049944;28;20897;-59
2022/06/07 02:13:44;;;;;;;4.80;1.60;;;16.40;1.00;;;;;;5049648;28;20453;-60
2022/06/07 02:16:10;;;;;;;4.80;1.60;;;16.40;99.90;;;;;;5050688;28;20681;-61
2022/06/07 02:18:37;;;;;;;8.68;2.13;;;16.30;2.10;;;;;;5050417;28;20386;-56
2022/06/07 02:21:03;;;;;;;7.40;2.00;;;16.30;1.00;;;;;;5049902;28;20404;-61
2022/06/07 02:23:30;;;;;;;5.60;1.60;;;16.30;99.90;;;;;;5050201;28;20409;-62
2022/06/07 02:26:03;;;;;;;7.10;2.20;;;16.30;1.00;;;;;;5049189;28;20397;-64
2022/06/07 02:28:32;;;;;;;6.00;1.75;;;16.30;35.00;;;;;;5032472;28;20493;-60
2022/06/07 02:30:59;;;;;;;4.95;1.80;;;16.40;1.00;;;;;;5049080;28;20536;-63
2022/06/07 02:33:27;;;;;;;5.65;1.80;;;16.30;1.00;;;;;;5050218;28;20389;-61
2022/06/07 02:35:53;;;;;;;7.50;1.98;;;16.20;99.90;;;;;;5048941;28;20393;-61
2022/06/07 02:38:19;;;;;;;5.00;1.60;;;16.20;1.00;;;;;;5049894;28;20394;-60
2022/06/07 02:40:48;;;;;;;7.13;2.13;;;16.30;1.00;;;;;;5049190;28;20881;-61
2022/06/07 02:43:13;;;;;;;5.38;1.98;;;16.40;99.90;;;;;;5049651;28;20476;-60
2022/06/07 02:45:39;;;;;;;4.90;1.80;;;16.40;99.90;;;;;;5049491;28;20456;-57
2022/06/07 02:48:06;;;;;;;5.70;1.60;;;16.50;10.90;;;;;;5049918;28;20858;-61
2022/06/07 02:50:31;;;;;;;6.00;2.00;;;16.50;1.00;;;;;;5049273;28;20400;-60
2022/06/07 02:52:57;;;;;;;5.33;1.50;;;16.50;1.00;;;;;;5048693;28;20398;-61
2022/06/07 02:55:23;;;;;;;6.50;1.55;;;16.60;99.90;;;;;;5049732;28;20750;-61
2022/06/07 02:57:48;;;;;;;5.60;1.67;;;16.50;48.00;;;;;;5048691;28;20421;-61
2022/06/07 03:00:15;;;;;;;9.30;1.60;;;16.60;1.00;;;;;;5049389;28;20396;-61
2022/06/07 03:02:41;;;;;;;9.68;1.70;;;16.60;99.90;;;;;;5049094;28;20378;-60
2022/06/07 03:05:10;;;;;;;6.00;1.70;;;16.50;99.90;;;;;;5048992;28;20406;-61
2022/06/07 03:07:36;;;;;;;5.00;1.50;;;16.50;99.90;;;;;;5049389;28;20401;-60
2022/06/07 03:10:03;;;;;;;4.90;1.55;;;16.40;1.00;;;;;;5049294;28;20401;-61
2022/06/07 03:12:28;;;;;;;4.95;1.30;;;16.50;1.00;;;;;;5049117;28;20401;-62
2022/06/07 03:14:54;;;;;;;5.80;1.70;;;16.40;1.00;;;;;;5048505;28;20394;-60
2022/06/07 03:17:19;;;;;;;5.78;1.90;;;16.40;1.00;;;;;;5049387;28;20382;-60
2022/06/07 03:19:45;;;;;;;4.95;2.00;;;16.30;99.90;;;;;;5048857;28;20472;-61
2022/06/07 03:22:12;;;;;;;5.13;2.00;;;16.20;55.70;;;;;;5048856;28;20488;-61
2022/06/07 03:24:38;;;;;;;4.90;1.60;;;16.40;1.00;;;;;;5049338;28;20377;-57
2022/06/07 03:27:04;;;;;;;7.10;1.70;;;16.40;1.00;;;;;;5048936;28;20400;-61
2022/06/07 03:29:29;;;;;;;6.53;2.00;;;16.40;99.90;;;;;;5049096;28;20492;-60
2022/06/07 03:31:55;;;;;;;5.10;1.60;;;16.40;99.90;;;;;;5048456;28;20896;-61
2022/06/07 03:34:21;;;;;;;4.90;1.83;;;16.40;1.00;;;;;;5049219;28;20515;-59
2022/06/07 03:36:46;;;;;;;6.60;1.80;;;16.50;99.90;;;;;;5047953;28;20405;-60
2022/06/07 03:39:12;;;;;;;5.73;1.90;;;16.60;27.90;;;;;;5048995;28;20835;-60
2022/06/07 03:41:38;;;;;;;4.55;1.60;;;16.60;99.90;;;;;;5048639;28;20389;-56
2022/06/07 03:44:04;;;;;;;6.63;1.95;;;16.40;1.00;;;;;;5048608;28;20450;-61
2022/06/07 03:46:32;;;;;;;5.53;1.60;;;16.40;1.00;;;;;;5049409;28;20381;-61
2022/06/07 03:48:59;;;;;;;5.13;1.80;;;16.50;26.80;;;;;;5048214;28;20410;-61
2022/06/07 03:51:26;;;;;;;6.70;1.80;;;16.50;99.90;;;;;;5048723;28;20398;-61
2022/06/07 03:53:52;;;;;;;5.63;1.80;;;16.60;99.90;;;;;;5048513;28;20390;-61
2022/06/07 03:56:18;;;;;;;6.07;1.90;;;16.60;1.00;;;;;;5048749;28;20408;-61
2022/06/07 03:58:44;;;;;;;5.07;1.88;;;16.60;1.00;;;;;;5048460;28;20392;-60
2022/06/07 04:01:16;;;;;;;6.00;1.80;;;16.50;1.00;;;;;;5048899;28;20731;-61
2022/06/07 04:03:43;;;;;;;5.40;1.70;;;16.50;99.90;;;;;;5048278;28;20404;-57
2022/06/07 04:06:40;;;;;;;5.80;1.80;;;16.60;1.00;;;;;;5049034;28;20469;-61
2022/06/07 04:09:06;;;;;;;6.03;1.80;;;16.60;99.90;;;;;;5047031;28;20421;-60
2022/06/07 04:11:32;;;;;;;5.93;2.08;;;16.60;99.90;;;;;;5048574;28;20466;-60
2022/06/07 04:13:58;;;;;;;5.70;1.60;;;16.60;99.90;;;;;;5048212;28;21182;-60
2022/06/07 04:16:26;;;;;;;6.07;1.80;;;16.70;40.50;;;;;;5048824;28;20382;-60
2022/06/07 04:18:53;;;;;;;4.82;1.60;;;16.70;6.30;;;;;;5048264;28;20436;-60
2022/06/07 04:21:20;;;;;;;6.37;1.90;;;16.80;1.00;;;;;;5050299;28;20382;-59
2022/06/07 04:23:45;;;;;;;5.85;1.85;;;16.80;99.90;;;;;;5051526;28;20412;-60
2022/06/07 04:26:17;;;;;;;5.90;1.80;;;16.90;1.00;;;;;;5052781;28;20692;-60
2022/06/07 04:28:43;;;;;;;5.00;1.60;;;16.90;94.30;;;;;;5051310;28;20424;-60
2022/06/07 04:31:18;;;;;;;5.50;1.50;;;16.90;1.00;;;;;;5052338;28;20921;-61
2022/06/07 04:33:44;;;;;;;5.00;1.52;;;16.90;99.90;;;;;;5051555;28;20806;-61
2022/06/07 04:36:16;;;;;;;5.60;1.70;;;16.80;1.00;;;;;;5053581;28;21922;-61
2022/06/07 04:38:42;;;;;;;5.20;1.80;;;16.80;1.00;;;;;;5051916;28;20417;-57
2022/06/07 04:41:13;;;;;;;5.37;1.90;;;16.90;1.00;;;;;;5051078;28;20469;-61
2022/06/07 04:43:39;;;;;;;7.50;1.98;;;17.00;1.00;;;;;;5051720;28;20404;-57
2022/06/07 04:46:07;;;;;;;5.70;1.70;;;17.00;99.90;;;;;;5051255;28;20481;-60
2022/06/07 04:48:33;;;;;;;5.05;1.70;;;17.10;99.90;;;;;;5050005;28;20413;-59
2022/06/07 04:51:08;;;;;;;4.90;1.60;;;17.20;61.20;;;;;;5053832;28;20414;-61
2022/06/07 04:53:34;;;;;;;5.70;1.80;;;17.20;1.00;;;;;;5068859;28;20402;-60
2022/06/07 04:56:10;;;;;;;4.80;1.50;;;17.20;3.20;;;;;;5049757;28;20405;-61
2022/06/07 04:58:36;;;;;;;5.10;1.60;;;17.30;99.90;;;;;;5052233;28;20418;-57
2022/06/07 05:01:10;;;;;;;6.60;2.15;;;17.10;99.90;;;;;;5050797;28;20389;-57
2022/06/07 05:03:36;;;;;;;12.32;2.30;;;17.20;1.00;;;;;;5051268;28;20397;-57
2022/06/07 05:06:02;;;;;;;5.20;2.00;;;17.20;99.90;;;;;;5050902;28;20382;-58
2022/06/07 05:08:27;;;;;;;6.80;2.00;;;17.10;99.90;;;;;;5051307;28;20432;-61
2022/06/07 05:10:54;;;;;;;7.97;1.90;;;17.10;1.00;;;;;;5045084;28;20425;-61
2022/06/07 05:13:21;;;;;;;6.00;2.10;;;17.20;1.00;;;;;;5046546;28;20421;-61
2022/06/07 05:15:53;;;;;;;6.07;1.70;;;17.30;1.00;;;;;;5048628;28;20453;-61
2022/06/07 05:18:19;;;;;;;5.15;1.67;;;17.40;99.90;;;;;;5045461;28;20476;-60
2022/06/07 05:20:45;;;;;;;5.20;1.70;;;17.60;99.90;;;;;;5049868;28;20405;-58
2022/06/07 05:23:11;;;;;;;5.93;1.50;;;17.60;99.90;;;;;;5050575;28;20508;-59
2022/06/07 05:25:36;;;;;;;6.10;1.70;;;17.80;1.00;;;;;;5051048;28;20393;-59
2022/06/07 05:28:02;;;;;;;7.70;1.60;;;17.60;1.00;;;;;;5049194;28;20409;-57
2022/06/07 05:30:28;;;;;;;5.70;1.70;;;17.60;1.00;;;;;;5050255;28;20510;-59
2022/06/07 05:32:54;;;;;;;5.17;1.70;;;17.50;99.90;;;;;;5048618;28;20409;-58
2022/06/07 05:35:19;;;;;;;6.97;2.20;;;17.70;99.90;;;;;;5051599;28;20386;-59
2022/06/07 05:37:45;;;;;;;7.33;2.00;;;18.00;99.90;;;;;;5049693;28;20469;-60
2022/06/07 05:40:11;;;;;;;6.60;1.80;;;18.10;1.00;;;;;;5050174;28;20396;-61
2022/06/07 05:42:37;;;;;;;6.38;1.80;;;18.20;1.00;;;;;;5050687;28;20541;-57
2022/06/07 05:45:03;;;;;;;5.45;1.80;;;18.40;99.90;;;;;;5049660;28;20469;-61
2022/06/07 05:47:30;;;;;;;5.20;1.70;;;18.60;99.90;;;;;;5050721;28;20923;-59
2022/06/07 05:49:55;;;;;;;6.68;2.10;;;18.90;1.00;;;;;;5050106;28;20389;-56
2022/06/07 05:52:21;;;;;;;5.50;1.80;;;19.00;1.00;;;;;;5050278;28;20420;-57
2022/06/07 05:54:47;;;;;;;5.80;1.80;;;19.20;1.00;;;;;;5050119;28;20421;-56
2022/06/07 05:57:12;;;;;;;5.40;1.70;;;19.30;99.90;;;;;;5050551;28;20389;-56
2022/06/07 05:59:39;;;;;;;5.40;1.50;;;19.80;99.90;;;;;;5050726;28;20397;-57
2022/06/07 06:02:04;;;;;;;5.97;1.48;;;20.30;24.50;;;;;;5049720;28;20429;-57
2022/06/07 06:04:30;;;;;;;5.50;1.40;;;21.00;1.00;;;;;;5046420;28;20463;-57
2022/06/07 06:06:57;;;;;;;6.20;1.60;;;21.60;1.00;;;;;;5047712;28;20823;-57
2022/06/07 06:12:08;;;;;;;7.20;1.48;;;21.40;1.00;;;;;;5050214;28;20747;-57
2022/06/07 06:14:33;;;;;;;5.00;1.40;;;21.60;99.90;;;;;;5050278;28;20467;-57
2022/06/07 06:16:59;;;;;;;6.07;1.60;;;21.90;99.90;;;;;;5049498;28;21213;-57
2022/06/07 06:19:25;;;;;;;6.50;1.90;;;22.30;99.90;;;;;;5050054;28;20416;-57
2022/06/07 06:21:51;;;;;;;5.17;1.40;;;22.40;99.90;;;;;;5048995;28;20397;-57
2022/06/07 06:24:17;;;;;;;6.60;1.50;;;22.40;99.90;;;;;;5050394;28;20484;-57
2022/06/07 06:26:43;;;;;;;5.13;1.58;;;22.50;99.90;;;;;;5049982;28;20385;-61
2022/06/07 06:29:10;;;;;;;6.20;1.90;;;22.60;99.90;;;;;;5049691;28;20481;-58
2022/06/07 06:31:37;;;;;;;7.90;2.00;;;22.70;99.90;;;;;;5049493;28;20394;-57
2022/06/07 06:34:06;;;;;;;5.00;1.42;;;22.60;99.90;;;;;;5048607;28;20456;-57
2022/06/07 06:36:31;;;;;;;6.35;1.92;;;22.20;99.90;;;;;;5049773;28;20400;-57
2022/06/07 06:38:58;;;;;;;5.90;1.30;;;21.20;99.90;;;;;;5049286;28;20428;-57
2022/06/07 06:41:29;;;;;;;6.25;1.50;;;21.40;99.90;;;;;;5050028;28;20435;-57
2022/06/07 06:43:56;;;;;;;4.80;1.20;;;21.90;99.90;;;;;;5048818;28;20390;-57
2022/06/07 06:46:26;;;;;;;5.17;1.40;;;22.70;99.90;;;;;;5049142;28;20448;-57
2022/06/07 06:48:52;;;;;;;5.68;1.40;;;23.10;99.90;;;;;;5034679;28;20467;-57
2022/06/07 06:51:20;;;;;;;5.47;1.60;;;23.40;99.90;;;;;;5049223;28;20398;-57
2022/06/07 06:53:47;;;;;;;6.00;1.80;;;23.30;99.90;;;;;;5049496;28;20492;-57
2022/06/07 06:56:15;;;;;;;4.85;1.30;;;22.90;99.90;;;;;;5049848;28;20381;-57
2022/06/07 06:58:41;;;;;;;5.97;1.40;;;23.40;99.90;;;;;;5049582;28;20401;-60
2022/06/07 07:01:10;;;;;;;5.50;1.80;;;23.00;99.90;;;;;;5048879;28;20381;-57
2022/06/07 07:03:37;;;;;;;5.38;1.60;;;23.20;99.90;;;;;;5048905;28;20448;-58
2022/06/07 07:06:04;;;;;;;6.03;1.40;;;23.50;99.90;;;;;;5048540;28;20469;-57
2022/06/07 07:08:30;;;;;;;5.53;1.30;;;24.00;99.90;;;;;;5047984;28;20421;-57
2022/06/07 07:11:27;;;;;;;7.40;1.70;;;24.30;99.90;;;;;;5048201;28;20402;-57
2022/06/07 07:13:55;;;;;;;5.55;1.60;;;26.10;99.90;;;;;;5028491;28;20468;-57
2022/06/07 07:16:24;;;;;;;8.20;2.70;;;27.30;99.90;;;;;;5049340;28;20386;-57
2022/06/07 07:18:50;;;;;;;5.15;1.73;;;27.20;99.90;;;;;;5048911;28;20413;-58
2022/06/07 07:21:23;;;;;;;8.70;2.20;;;26.70;99.90;;;;;;5049238;28;20384;-57
2022/06/07 07:23:49;;;;;;;5.87;1.70;;;26.40;99.90;;;;;;5048634;28;20436;-57
2022/06/07 07:26:26;;;;;;;6.00;2.10;;;26.50;99.90;;;;;;5049654;28;20476;-58
2022/06/07 07:28:55;;;;;;;5.30;1.80;;;26.80;99.90;;;;;;5048781;28;20409;-58
2022/06/07 07:31:30;;;;;;;6.80;2.10;;;27.10;99.90;;;;;;5049164;28;20382;-57
2022/06/07 07:33:56;;;;;;;7.28;2.47;;;27.30;99.90;;;;;;5048616;28;20396;-57
2022/06/07 07:36:22;;;;;;;4.83;1.60;;;26.10;99.90;;;;;;5049223;28;20476;-58
2022/06/07 07:38:48;;;;;;;5.70;1.73;;;25.90;99.90;;;;;;5051561;28;20477;-58
2022/06/07 07:41:26;;;;;;;5.80;1.80;;;25.70;99.90;;;;;;5050238;28;20393;-57
2022/06/07 07:43:54;;;;;;;5.90;1.90;;;25.50;99.90;;;;;;5047987;28;20421;-57
2022/06/07 07:46:21;;;;;;;6.28;1.83;;;24.90;99.90;;;;;;5049131;28;20932;-57
2022/06/07 07:48:48;;;;;;;5.90;1.45;;;24.90;99.90;;;;;;5048250;28;20410;-58
2022/06/07 07:51:21;;;;;;;5.22;1.50;;;24.40;99.90;;;;;;5048777;28;20392;-58
2022/06/07 07:53:47;;;;;;;5.50;1.70;;;24.60;99.90;;;;;;5047889;28;20405;-60
2022/06/07 07:56:14;;;;;;;7.50;2.20;;;25.30;99.90;;;;;;5049987;28;20393;-57
2022/06/07 07:58:40;;;;;;;6.55;1.85;;;25.00;99.90;;;;;;5051961;28;20750;-57
2022/06/07 08:01:14;;;;;;;5.90;1.80;;;25.40;99.90;;;;;;5051662;28;20385;-57
2022/06/07 08:03:41;;;;;;;7.82;2.30;;;25.50;99.90;;;;;;5034607;28;20438;-58
2022/06/07 08:06:09;;;;;;;5.50;1.35;;;25.20;99.90;;;;;;5050782;28;20381;-58
2022/06/07 08:08:35;;;;;;;6.90;2.03;;;24.60;99.90;;;;;;5052176;28;20424;-57
2022/06/07 08:11:02;;;;;;;6.25;1.70;;;23.90;99.90;;;;;;5051354;28;20392;-61
2022/06/07 08:13:29;;;;;;;7.35;1.85;;;24.10;99.90;;;;;;5052633;28;20405;-61
2022/06/07 08:15:55;;;;;;;5.70;2.00;;;25.00;99.90;;;;;;5052070;28;20400;-63
2022/06/07 08:18:23;;;;;;;6.25;1.85;;;25.80;99.90;;;;;;5052729;28;20378;-61
2022/06/07 08:20:49;;;;;;;5.40;1.80;;;26.20;99.90;;;;;;5052031;28;20374;-61
2022/06/07 08:23:15;;;;;;;7.00;1.92;;;25.10;99.90;;;;;;5052436;28;20405;-61
2022/06/07 08:25:41;;;;;;;6.40;1.90;;;24.00;99.90;;;;;;5053032;28;20498;-61
2022/06/07 08:28:07;;;;;;;5.57;1.60;;;24.10;99.90;;;;;;5033851;28;20444;-60
2022/06/07 08:30:36;;;;;;;5.80;1.70;;;24.90;99.90;;;;;;5052762;28;20390;-61
2022/06/07 08:37:32;;;;;;;5.80;1.50;;;25.90;99.90;;;;;;5051688;28;20409;-59
2022/06/07 08:38:31;;;;;;;5.85;1.60;;;25.10;99.90;;;;;;5052171;28;20943;-61
2022/06/07 08:40:58;;;;;;;5.30;1.23;;;24.60;99.90;;;;;;5051718;28;20424;-61
2022/06/07 08:43:25;;;;;;;5.80;1.60;;;25.10;99.90;;;;;;5052300;28;20417;-61
2022/06/07 08:45:54;;;;;;;6.22;1.92;;;26.70;99.90;;;;;;5051438;28;20389;-60
2022/06/07 08:48:27;;;;;;;6.30;2.95;;;28.30;99.90;;;;;;5052260;28;20416;-61
2022/06/07 08:51:05;;;;;;;7.05;4.45;;;29.00;99.90;;;;;;5051098;28;20723;-62
2022/06/07 08:53:37;;;;;;;7.50;4.20;;;29.60;99.90;;;;;;5052200;28;20412;-62
2022/06/07 08:56:09;;;;;;;6.25;3.70;;;29.00;99.90;;;;;;5051353;28;20751;-63
2022/06/07 08:58:38;;;;;;;6.35;4.00;;;28.60;99.90;;;;;;5051968;28;20398;-61
2022/06/07 09:01:27;;;;;;;6.25;4.18;;;28.60;99.90;;;;;;5051115;28;20493;-62
2022/06/07 09:04:29;;;;;;;7.50;4.90;;;29.70;99.90;;;;;;5051204;28;20401;-61
2022/06/07 09:07:00;;;;;;;6.60;3.90;;;28.60;99.90;;;;;;5032656;28;20393;-62
2022/06/07 09:12:09;;;;;;;8.10;4.72;;;29.20;99.90;;;;;;5051712;28;20513;-62
2022/06/07 09:12:25;;;;;;;5.80;1.30;;;30.40;99.90;;;;;;5051574;28;20386;-61
2022/06/07 09:14:52;;;;;;;4.60;1.10;;;30.50;99.90;;;;;;5050726;28;20442;-62
2022/06/07 09:17:38;;;;;;;4.80;1.00;;;30.30;99.90;;;;;;5051565;28;20377;-62
2022/06/07 09:20:07;;;;;;;7.80;1.25;;;30.30;99.90;;;;;;5050902;28;20385;-62
2022/06/07 09:22:54;;;;;;;7.57;4.40;;;30.10;99.90;;;;;;5051136;28;20800;-63
2022/06/07 09:25:39;;;;;;;7.17;5.60;;;31.10;99.90;;;;;;5051253;28;20424;-62
2022/06/07 09:28:12;;;;;;;6.25;5.15;;;32.10;99.90;;;;;;5050356;28;20469;-63
2022/06/07 09:30:44;;;;;;;5.63;3.65;;;32.50;99.90;;;;;;5033794;28;20466;-61
2022/06/07 09:33:22;;;;;;;5.32;2.20;;;32.70;99.90;;;;;;5050669;28;20373;-63
2022/06/07 09:35:49;;;;;;;6.20;1.33;;;31.70;99.90;;;;;;5050655;28;20425;-59
2022/06/07 09:38:55;;;;;;;4.70;1.20;;;31.70;99.90;;;;;;5051383;28;20862;-62
2022/06/07 09:41:38;;;;;;;6.18;1.30;;;31.30;99.90;;;;;;5048430;28;20404;-62
2022/06/07 09:44:20;;;;;;;7.32;2.78;;;31.10;99.90;;;;;;5050580;28;20381;-62
2022/06/07 09:46:50;;;;;;;6.40;5.30;;;28.80;99.90;;;;;;5050711;28;20431;-57
2022/06/07 09:49:37;;;;;;;6.05;4.60;;;26.80;99.90;;;;;;5050607;28;20966;-62
2022/06/07 09:52:10;;;;;;;7.30;4.70;;;26.80;99.90;;;;;;5050344;28;20590;-63
2022/06/07 09:54:40;;;;;;;6.10;4.90;;;27.80;99.90;;;;;;5051080;28;20835;-63
2022/06/07 09:57:36;;;;;;;6.10;4.60;;;28.20;99.90;;;;;;5050221;28;20381;-64
2022/06/07 10:00:11;;;;;;;5.93;4.07;;;28.30;99.90;;;;;;5050034;28;20378;-62
2022/06/07 10:03:17;;;;;;;5.90;4.30;;;28.30;99.90;;;;;;5051113;28;20475;-63
2022/06/07 10:05:50;;;;;;;7.40;5.00;;;26.60;99.90;;;;;;4988964;28;20426;-64
2022/06/07 10:08:44;;;;;;;7.30;4.50;;;26.00;1.00;;;;;;5042720;28;20413;-64
2022/06/07 10:11:10;;;;;;;8.43;4.20;;;25.70;1.00;;;;;;5041334;28;20463;-64
2022/06/07 10:13:42;;;;;;;6.10;4.50;;;25.90;1.00;;;;;;5050848;28;20382;-64
2022/06/07 10:16:26;;;;;;;6.40;4.30;;;25.80;1.00;;;;;;5048502;28;20658;-62
2022/06/07 10:19:27;;;;;;;6.90;4.40;;;27.00;1.00;;;;;;5049097;28;20393;-65
2022/06/07 10:21:55;;;;;;;7.00;3.80;;;28.00;99.90;;;;;;5049420;28;20382;-64
2022/06/07 10:24:57;;;;;;;7.22;3.40;;;29.20;99.90;;;;;;5050673;28;20420;-64
2022/06/07 10:27:34;;;;;;;5.90;3.70;;;29.50;99.90;;;;;;5050421;28;20385;-63
2022/06/07 10:30:22;;;;;;;5.90;3.80;;;29.30;99.90;;;;;;5031663;28;20405;-64
2022/06/07 10:33:19;;;;;;;5.78;3.50;;;29.00;99.90;;;;;;5050013;28;20873;-60
2022/06/07 10:36:08;;;;;;;6.40;3.73;;;28.50;99.90;;;;;;5050404;28;20396;-64
2022/06/07 10:38:51;;;;;;;7.40;3.90;;;27.60;99.90;;;;;;5050228;28;20385;-64
2022/06/07 10:41:36;;;;;;;6.50;4.20;;;27.00;99.90;;;;;;5049956;28;20861;-63
2022/06/07 10:44:23;;;;;;;6.10;4.20;;;26.00;99.90;;;;;;5049113;28;20381;-62
2022/06/07 10:46:49;;;;;;;6.35;3.70;;;25.20;99.90;;;;;;5049652;28;20445;-59
2022/06/07 10:49:34;;;;;;;6.70;4.30;;;25.60;99.90;;;;;;5049691;28;20409;-64
2022/06/07 10:52:29;;;;;;;6.60;4.00;;;26.20;99.90;;;;;;5048795;28;20964;-64
2022/06/07 10:55:38;;;;;;;5.75;3.80;;;26.30;99.90;;;;;;5044631;28;20953;-63
2022/06/07 10:58:20;;;;;;;7.00;4.20;;;25.50;99.90;;;;;;5029223;28;20393;-64
2022/06/07 11:00:52;;;;;;;6.70;4.00;;;25.50;99.90;;;;;;5049692;28;20780;-60
2022/06/07 11:03:33;;;;;;;7.10;4.20;;;25.00;99.90;;;;;;5049879;28;20370;-65
2022/06/07 11:09:21;;;;;;;6.20;4.10;;;25.70;99.90;;;;;;5048514;28;20902;-64
2022/06/07 11:11:52;;;;;;;6.15;3.35;;;25.50;99.90;;;;;;5049357;28;20396;-58
2022/06/07 11:15:05;;;;;;;6.10;3.90;;;25.20;99.90;;;;;;5049551;28;20388;-63
2022/06/07 11:17:38;;;;;;;5.70;3.80;;;24.80;99.90;;;;;;5035821;28;20903;-63
2022/06/07 11:20:13;;;;;;;6.97;4.03;;;24.60;99.90;;;;;;5048906;28;20985;-62
2022/06/07 11:23:12;;;;;;;7.07;3.60;;;24.10;99.90;;;;;;5049372;28;20508;-64
2022/06/07 11:25:52;;;;;;;5.22;3.10;;;23.80;99.90;;;;;;5041241;28;20448;-64
2022/06/07 11:28:37;;;;;;;5.90;3.10;;;23.60;99.90;;;;;;5049541;28;20452;-64
2022/06/07 11:31:23;;;;;;;8.20;3.50;;;23.50;99.90;;;;;;5053125;28;20381;-65
2022/06/07 11:33:51;;;;;;;6.90;3.10;;;23.30;99.90;;;;;;5055740;28;20377;-58
2022/06/07 11:36:20;;;;;;;6.05;2.80;;;23.10;99.90;;;;;;5056036;28;20381;-63
2022/06/07 11:38:58;;;;;;;5.65;2.40;;;22.90;99.90;;;;;;5056326;28;20389;-63
2022/06/07 11:41:38;;;;;;;6.00;2.92;;;22.90;99.90;;;;;;5056167;28;20373;-59
2022/06/07 11:44:12;;;;;;;5.80;3.00;;;23.00;99.90;;;;;;5055349;28;20412;-61
2022/06/07 11:46:40;;;;;;;5.43;2.70;;;23.20;99.90;;;;;;5056024;28;20424;-63
2022/06/07 11:49:24;;;;;;;11.68;2.90;;;23.20;99.90;;;;;;5055187;28;20499;-64
2022/06/07 11:52:12;;;;;;;8.40;2.78;;;23.30;99.90;;;;;;5055306;28;20411;-58
2022/06/07 11:54:37;;;;;;;6.50;3.00;;;23.80;99.90;;;;;;5055953;28;20392;-64
2022/06/07 11:57:17;;;;;;;6.20;2.70;;;24.50;99.90;;;;;;5055011;28;20373;-64
2022/06/07 11:59:46;;;;;;;6.07;2.70;;;24.90;99.90;;;;;;5055775;28;20468;-63
2022/06/07 12:02:14;;;;;;;6.90;2.00;;;24.90;99.90;;;;;;5055131;28;20740;-65
2022/06/07 12:04:40;;;;;;;7.75;2.60;;;24.60;99.90;;;;;;5055766;28;20381;-65
2022/06/07 12:07:21;;;;;;;7.50;2.80;;;24.00;99.90;;;;;;5054640;28;20439;-64
2022/06/07 12:09:56;;;;;;;5.40;2.83;;;23.60;99.90;;;;;;5055449;28;20408;-64
2022/06/07 12:12:31;;;;;;;5.90;2.53;;;23.40;99.90;;;;;;5055797;28;20381;-65
2022/06/07 12:15:23;;;;;;;8.13;2.50;;;23.00;99.90;;;;;;5054736;28;20396;-64
2022/06/07 12:17:59;;;;;;;6.40;2.03;;;22.90;99.90;;;;;;5055070;28;20393;-58
2022/06/07 12:20:40;;;;;;;7.20;2.60;;;22.80;99.90;;;;;;5055919;28;20377;-65
2022/06/07 12:23:28;;;;;;;5.80;2.00;;;22.90;99.90;;;;;;5054720;28;20471;-62
2022/06/07 12:26:06;;;;;;;7.73;2.37;;;22.80;99.90;;;;;;5055157;28;20373;-64
2022/06/07 12:28:34;;;;;;;5.90;2.20;;;22.70;99.90;;;;;;5055210;28;20750;-64
2022/06/07 12:31:15;;;;;;;5.38;2.00;;;22.90;99.90;;;;;;5054897;28;20386;-64
2022/06/07 12:33:50;;;;;;;5.80;2.50;;;23.50;99.90;;;;;;5055572;28;20393;-64
2022/06/07 12:36:38;;;;;;;5.40;2.30;;;24.00;99.90;;;;;;5055209;28;20374;-62
2022/06/07 12:39:12;;;;;;;5.90;2.50;;;24.30;99.90;;;;;;5054971;28;20385;-64
2022/06/07 12:41:52;;;;;;;5.90;2.30;;;24.00;99.90;;;;;;5053970;28;20377;-64
2022/06/07 12:44:24;;;;;;;6.53;2.70;;;24.00;99.90;;;;;;5052250;28;20455;-64
2022/06/07 12:46:50;;;;;;;8.15;3.17;;;23.90;99.90;;;;;;5034289;28;20743;-58
2022/06/07 12:49:46;;;;;;;6.00;2.70;;;24.20;99.90;;;;;;5051902;28;20405;-64
2022/06/07 12:52:19;;;;;;;6.13;2.40;;;24.30;99.90;;;;;;5032017;28;20891;-64
2022/06/07 12:54:53;;;;;;;7.25;2.70;;;24.00;99.90;;;;;;5052213;28;20394;-64
2022/06/07 12:57:36;;;;;;;6.40;2.50;;;23.60;99.90;;;;;;5052391;28;20381;-63
2022/06/07 13:00:13;;;;;;;5.37;2.60;;;23.70;99.90;;;;;;5051304;28;20389;-60
2022/06/07 13:02:39;;;;;;;5.90;2.50;;;23.60;99.90;;;;;;5052217;28;20714;-63
2022/06/07 13:05:10;;;;;;;7.07;2.60;;;23.60;99.90;;;;;;5051222;28;20420;-63
2022/06/07 13:07:48;;;;;;;6.50;2.50;;;23.70;99.90;;;;;;5052108;28;20377;-63
2022/06/07 13:10:22;;;;;;;6.32;2.65;;;23.90;99.90;;;;;;5051299;28;20393;-63
2022/06/07 13:12:50;;;;;;;6.82;2.65;;;23.90;99.90;;;;;;5051974;28;20377;-61
2022/06/07 13:15:19;;;;;;;5.80;2.72;;;23.90;99.90;;;;;;5050924;28;20861;-64
2022/06/07 13:18:00;;;;;;;6.00;2.63;;;24.00;99.90;;;;;;5051790;28;20423;-64
2022/06/07 13:20:41;;;;;;;5.75;2.55;;;24.10;99.90;;;;;;5051640;28;20382;-64
2022/06/07 13:23:29;;;;;;;7.68;2.70;;;24.30;99.90;;;;;;5050722;28;20409;-63
2022/06/07 13:26:11;;;;;;;6.30;2.60;;;24.40;99.90;;;;;;5050740;28;20401;-62